sensor_id;sensor_type;location;lat;lon;timestamp;P1;durP1;ratioP1;P2;durP2;ratioP2
38196;SDS011;26543;51.976;4.616;2022-08-21T00:01:59;3.85;;;1.83;;
38196;SDS011;26543;51.976;4.616;2022-08-21T00:04:25;1.17;;;0.60;;
38196;SDS011;26543;51.976;4.616;2022-08-21T00:06:50;3.13;;;1.15;;
38196;SDS011;26543;51.976;4.616;2022-08-21T00:09:17;2.08;;;1.10;;
38196;SDS011;26543;51.976;4.616;2022-08-21T00:11:43;4.53;;;1.55;;
38196;SDS011;26543;51.976;4.616;2022-08-21T00:14:09;2.65;;;1.10;;
38196;SDS011;26543;51.976;4.616;2022-08-21T00:16:35;2.85;;;1.02;;
38196;SDS011;26543;51.976;4.616;2022-08-21T00:19:01;2.67;;;1.08;;
38196;SDS011;26543;51.976;4.616;2022-08-21T00:21:27;2.80;;;1.27;;
38196;SDS011;26543;51.976;4.616;2022-08-21T00:23:53;5.28;;;1.40;;
38196;SDS011;26543;51.976;4.616;2022-08-21T00:26:18;1.55;;;0.93;;
38196;SDS011;26543;51.976;4.616;2022-08-21T00:28:44;1.95;;;0.93;;
38196;SDS011;26543;51.976;4.616;2022-08-21T00:31:11;6.63;;;1.48;;
38196;SDS011;26543;51.976;4.616;2022-08-21T00:33:36;2.35;;;1.20;;
38196;SDS011;26543;51.976;4.616;2022-08-21T00:36:02;1.27;;;0.73;;
38196;SDS011;26543;51.976;4.616;2022-08-21T00:38:28;2.08;;;0.60;;
38196;SDS011;26543;51.976;4.616;2022-08-21T00:40:56;1.50;;;0.88;;
38196;SDS011;26543;51.976;4.616;2022-08-21T00:43:25;1.75;;;1.05;;
38196;SDS011;26543;51.976;4.616;2022-08-21T00:48:19;3.13;;;1.42;;
38196;SDS011;26543;51.976;4.616;2022-08-21T00:51:28;2.05;;;1.20;;
38196;SDS011;26543;51.976;4.616;2022-08-21T00:53:37;2.15;;;1.05;;
38196;SDS011;26543;51.976;4.616;2022-08-21T00:56:05;2.90;;;1.38;;
38196;SDS011;26543;51.976;4.616;2022-08-21T00:58:34;1.73;;;1.00;;
38196;SDS011;26543;51.976;4.616;2022-08-21T01:01:03;1.60;;;0.80;;
38196;SDS011;26543;51.976;4.616;2022-08-21T01:03:31;1.92;;;1.20;;
38196;SDS011;26543;51.976;4.616;2022-08-21T01:05:58;1.33;;;0.65;;
38196;SDS011;26543;51.976;4.616;2022-08-21T01:08:23;3.05;;;0.80;;
38196;SDS011;26543;51.976;4.616;2022-08-21T01:10:50;4.15;;;0.80;;
38196;SDS011;26543;51.976;4.616;2022-08-21T01:13:18;1.67;;;0.75;;
38196;SDS011;26543;51.976;4.616;2022-08-21T01:15:45;1.65;;;0.73;;
38196;SDS011;26543;51.976;4.616;2022-08-21T01:18:13;2.70;;;1.00;;
38196;SDS011;26543;51.976;4.616;2022-08-21T01:20:42;2.08;;;0.98;;
38196;SDS011;26543;51.976;4.616;2022-08-21T01:23:10;2.10;;;1.02;;
38196;SDS011;26543;51.976;4.616;2022-08-21T01:25:36;3.38;;;1.25;;
38196;SDS011;26543;51.976;4.616;2022-08-21T01:28:03;1.70;;;1.08;;
38196;SDS011;26543;51.976;4.616;2022-08-21T01:30:37;3.15;;;1.00;;
38196;SDS011;26543;51.976;4.616;2022-08-21T01:33:06;2.20;;;1.27;;
38196;SDS011;26543;51.976;4.616;2022-08-21T01:35:31;4.40;;;1.45;;
38196;SDS011;26543;51.976;4.616;2022-08-21T01:37:57;1.88;;;1.13;;
38196;SDS011;26543;51.976;4.616;2022-08-21T01:40:22;4.57;;;1.27;;
38196;SDS011;26543;51.976;4.616;2022-08-21T01:42:48;2.13;;;0.90;;
38196;SDS011;26543;51.976;4.616;2022-08-21T01:45:14;3.35;;;1.00;;
38196;SDS011;26543;51.976;4.616;2022-08-21T01:47:40;2.40;;;1.00;;
38196;SDS011;26543;51.976;4.616;2022-08-21T01:50:07;4.28;;;1.10;;
38196;SDS011;26543;51.976;4.616;2022-08-21T01:52:35;4.82;;;0.85;;
38196;SDS011;26543;51.976;4.616;2022-08-21T01:55:00;2.17;;;0.95;;
38196;SDS011;26543;51.976;4.616;2022-08-21T01:57:27;1.30;;;0.73;;
38196;SDS011;26543;51.976;4.616;2022-08-21T01:59:52;3.03;;;0.70;;
38196;SDS011;26543;51.976;4.616;2022-08-21T02:02:18;2.15;;;0.98;;
38196;SDS011;26543;51.976;4.616;2022-08-21T02:04:44;5.85;;;1.10;;
38196;SDS011;26543;51.976;4.616;2022-08-21T02:07:09;1.58;;;0.88;;
38196;SDS011;26543;51.976;4.616;2022-08-21T02:09:34;1.42;;;0.70;;
38196;SDS011;26543;51.976;4.616;2022-08-21T02:12:00;3.25;;;1.17;;
38196;SDS011;26543;51.976;4.616;2022-08-21T02:14:25;3.13;;;0.90;;
38196;SDS011;26543;51.976;4.616;2022-08-21T02:16:50;1.05;;;0.68;;
38196;SDS011;26543;51.976;4.616;2022-08-21T02:19:16;1.40;;;0.90;;
38196;SDS011;26543;51.976;4.616;2022-08-21T02:21:42;2.33;;;1.08;;
38196;SDS011;26543;51.976;4.616;2022-08-21T02:24:09;2.95;;;1.00;;
38196;SDS011;26543;51.976;4.616;2022-08-21T02:26:35;2.30;;;1.15;;
38196;SDS011;26543;51.976;4.616;2022-08-21T02:29:00;1.45;;;0.82;;
38196;SDS011;26543;51.976;4.616;2022-08-21T02:31:26;1.23;;;0.88;;
38196;SDS011;26543;51.976;4.616;2022-08-21T02:33:52;2.05;;;0.93;;
38196;SDS011;26543;51.976;4.616;2022-08-21T02:36:20;2.35;;;1.20;;
38196;SDS011;26543;51.976;4.616;2022-08-21T02:38:45;2.45;;;0.95;;
38196;SDS011;26543;51.976;4.616;2022-08-21T02:41:12;3.40;;;1.50;;
38196;SDS011;26543;51.976;4.616;2022-08-21T02:43:39;2.60;;;0.82;;
38196;SDS011;26543;51.976;4.616;2022-08-21T02:46:07;2.00;;;0.68;;
38196;SDS011;26543;51.976;4.616;2022-08-21T02:48:34;2.33;;;1.17;;
38196;SDS011;26543;51.976;4.616;2022-08-21T02:51:00;2.88;;;1.20;;
38196;SDS011;26543;51.976;4.616;2022-08-21T02:53:28;9.25;;;1.58;;
38196;SDS011;26543;51.976;4.616;2022-08-21T02:55:56;5.75;;;1.73;;
38196;SDS011;26543;51.976;4.616;2022-08-21T02:58:27;2.50;;;1.73;;
38196;SDS011;26543;51.976;4.616;2022-08-21T03:00:56;4.57;;;1.02;;
38196;SDS011;26543;51.976;4.616;2022-08-21T03:03:23;2.15;;;1.45;;
38196;SDS011;26543;51.976;4.616;2022-08-21T03:05:49;4.28;;;1.58;;
38196;SDS011;26543;51.976;4.616;2022-08-21T03:08:15;3.97;;;1.23;;
38196;SDS011;26543;51.976;4.616;2022-08-21T03:10:43;1.63;;;0.80;;
38196;SDS011;26543;51.976;4.616;2022-08-21T03:13:11;3.25;;;0.70;;
38196;SDS011;26543;51.976;4.616;2022-08-21T03:15:38;2.63;;;1.00;;
38196;SDS011;26543;51.976;4.616;2022-08-21T03:18:05;2.75;;;1.25;;
38196;SDS011;26543;51.976;4.616;2022-08-21T03:20:32;1.83;;;1.00;;
38196;SDS011;26543;51.976;4.616;2022-08-21T03:22:59;2.22;;;1.15;;
38196;SDS011;26543;51.976;4.616;2022-08-21T03:25:25;3.88;;;1.23;;
38196;SDS011;26543;51.976;4.616;2022-08-21T03:27:52;1.55;;;0.57;;
38196;SDS011;26543;51.976;4.616;2022-08-21T03:30:19;1.25;;;0.90;;
38196;SDS011;26543;51.976;4.616;2022-08-21T03:32:47;2.83;;;1.00;;
38196;SDS011;26543;51.976;4.616;2022-08-21T03:35:14;2.83;;;1.20;;
38196;SDS011;26543;51.976;4.616;2022-08-21T03:37:40;3.55;;;1.17;;
38196;SDS011;26543;51.976;4.616;2022-08-21T03:40:06;3.47;;;1.13;;
38196;SDS011;26543;51.976;4.616;2022-08-21T03:42:33;6.00;;;1.00;;
38196;SDS011;26543;51.976;4.616;2022-08-21T03:44:59;2.90;;;1.08;;
38196;SDS011;26543;51.976;4.616;2022-08-21T03:47:25;1.15;;;0.68;;
38196;SDS011;26543;51.976;4.616;2022-08-21T03:49:51;1.80;;;1.05;;
38196;SDS011;26543;51.976;4.616;2022-08-21T03:52:16;3.58;;;1.00;;
38196;SDS011;26543;51.976;4.616;2022-08-21T03:54:42;2.60;;;1.33;;
38196;SDS011;26543;51.976;4.616;2022-08-21T03:57:09;2.90;;;1.65;;
38196;SDS011;26543;51.976;4.616;2022-08-21T03:59:35;5.40;;;0.88;;
38196;SDS011;26543;51.976;4.616;2022-08-21T04:02:02;2.30;;;0.88;;
38196;SDS011;26543;51.976;4.616;2022-08-21T04:04:29;3.55;;;1.15;;
38196;SDS011;26543;51.976;4.616;2022-08-21T04:06:55;5.22;;;1.30;;
38196;SDS011;26543;51.976;4.616;2022-08-21T04:09:22;2.47;;;1.25;;
38196;SDS011;26543;51.976;4.616;2022-08-21T04:11:48;2.28;;;1.23;;
38196;SDS011;26543;51.976;4.616;2022-08-21T04:14:14;2.03;;;0.70;;
38196;SDS011;26543;51.976;4.616;2022-08-21T04:16:40;7.57;;;1.23;;
38196;SDS011;26543;51.976;4.616;2022-08-21T04:19:06;1.60;;;0.80;;
38196;SDS011;26543;51.976;4.616;2022-08-21T04:21:32;3.35;;;1.20;;
38196;SDS011;26543;51.976;4.616;2022-08-21T04:23:58;2.05;;;1.00;;
38196;SDS011;26543;51.976;4.616;2022-08-21T04:26:24;5.50;;;0.95;;
38196;SDS011;26543;51.976;4.616;2022-08-21T04:28:50;2.58;;;0.82;;
38196;SDS011;26543;51.976;4.616;2022-08-21T04:31:17;5.15;;;1.35;;
38196;SDS011;26543;51.976;4.616;2022-08-21T04:33:42;2.13;;;0.90;;
38196;SDS011;26543;51.976;4.616;2022-08-21T04:36:08;8.02;;;2.13;;
38196;SDS011;26543;51.976;4.616;2022-08-21T04:38:33;6.13;;;1.83;;
38196;SDS011;26543;51.976;4.616;2022-08-21T04:40:59;2.40;;;1.52;;
38196;SDS011;26543;51.976;4.616;2022-08-21T04:43:24;5.95;;;1.48;;
38196;SDS011;26543;51.976;4.616;2022-08-21T04:45:50;2.08;;;1.02;;
38196;SDS011;26543;51.976;4.616;2022-08-21T04:48:18;5.95;;;1.95;;
38196;SDS011;26543;51.976;4.616;2022-08-21T04:50:59;1.80;;;1.33;;
38196;SDS011;26543;51.976;4.616;2022-08-21T04:53:46;1.95;;;0.77;;
38196;SDS011;26543;51.976;4.616;2022-08-21T04:56:22;4.90;;;1.38;;
38196;SDS011;26543;51.976;4.616;2022-08-21T04:58:52;4.82;;;1.40;;
38196;SDS011;26543;51.976;4.616;2022-08-21T05:01:21;3.20;;;1.83;;
38196;SDS011;26543;51.976;4.616;2022-08-21T05:03:49;2.63;;;1.38;;
38196;SDS011;26543;51.976;4.616;2022-08-21T05:06:20;2.13;;;1.25;;
38196;SDS011;26543;51.976;4.616;2022-08-21T05:08:46;5.53;;;2.03;;
38196;SDS011;26543;51.976;4.616;2022-08-21T05:11:13;4.15;;;1.65;;
38196;SDS011;26543;51.976;4.616;2022-08-21T05:13:39;2.20;;;1.40;;
38196;SDS011;26543;51.976;4.616;2022-08-21T05:16:06;5.82;;;1.80;;
38196;SDS011;26543;51.976;4.616;2022-08-21T05:18:31;4.43;;;1.58;;
38196;SDS011;26543;51.976;4.616;2022-08-21T05:20:57;8.48;;;2.65;;
38196;SDS011;26543;51.976;4.616;2022-08-21T05:23:22;8.60;;;2.20;;
38196;SDS011;26543;51.976;4.616;2022-08-21T05:25:47;8.48;;;2.28;;
38196;SDS011;26543;51.976;4.616;2022-08-21T05:28:14;4.68;;;1.77;;
38196;SDS011;26543;51.976;4.616;2022-08-21T05:30:39;3.28;;;1.48;;
38196;SDS011;26543;51.976;4.616;2022-08-21T05:33:05;3.90;;;2.20;;
38196;SDS011;26543;51.976;4.616;2022-08-21T05:35:31;7.03;;;2.60;;
38196;SDS011;26543;51.976;4.616;2022-08-21T05:37:58;6.95;;;2.38;;
38196;SDS011;26543;51.976;4.616;2022-08-21T05:40:25;7.95;;;2.17;;
38196;SDS011;26543;51.976;4.616;2022-08-21T05:42:53;3.55;;;1.65;;
38196;SDS011;26543;51.976;4.616;2022-08-21T05:45:20;2.45;;;1.45;;
38196;SDS011;26543;51.976;4.616;2022-08-21T05:47:46;8.57;;;2.45;;
38196;SDS011;26543;51.976;4.616;2022-08-21T05:50:12;7.75;;;2.58;;
38196;SDS011;26543;51.976;4.616;2022-08-21T05:52:37;3.67;;;1.88;;
38196;SDS011;26543;51.976;4.616;2022-08-21T05:55:03;7.18;;;2.22;;
38196;SDS011;26543;51.976;4.616;2022-08-21T05:57:29;4.13;;;2.00;;
38196;SDS011;26543;51.976;4.616;2022-08-21T05:59:54;3.65;;;1.85;;
38196;SDS011;26543;51.976;4.616;2022-08-21T06:02:20;4.40;;;2.00;;
38196;SDS011;26543;51.976;4.616;2022-08-21T06:04:45;4.93;;;1.92;;
38196;SDS011;26543;51.976;4.616;2022-08-21T06:07:11;4.30;;;1.60;;
38196;SDS011;26543;51.976;4.616;2022-08-21T06:09:37;7.72;;;2.38;;
38196;SDS011;26543;51.976;4.616;2022-08-21T06:12:07;7.28;;;2.35;;
38196;SDS011;26543;51.976;4.616;2022-08-21T06:14:34;5.43;;;2.05;;
38196;SDS011;26543;51.976;4.616;2022-08-21T06:17:04;8.70;;;1.67;;
38196;SDS011;26543;51.976;4.616;2022-08-21T06:19:32;6.10;;;1.90;;
38196;SDS011;26543;51.976;4.616;2022-08-21T06:21:57;5.40;;;1.95;;
38196;SDS011;26543;51.976;4.616;2022-08-21T06:24:23;6.05;;;1.83;;
38196;SDS011;26543;51.976;4.616;2022-08-21T06:26:49;10.27;;;2.42;;
38196;SDS011;26543;51.976;4.616;2022-08-21T06:29:14;6.07;;;2.00;;
38196;SDS011;26543;51.976;4.616;2022-08-21T06:31:42;3.22;;;1.80;;
38196;SDS011;26543;51.976;4.616;2022-08-21T06:34:08;3.13;;;1.55;;
38196;SDS011;26543;51.976;4.616;2022-08-21T06:36:37;7.53;;;2.45;;
38196;SDS011;26543;51.976;4.616;2022-08-21T06:39:03;5.72;;;2.10;;
38196;SDS011;26543;51.976;4.616;2022-08-21T06:41:28;3.70;;;1.50;;
38196;SDS011;26543;51.976;4.616;2022-08-21T06:43:54;5.70;;;2.03;;
38196;SDS011;26543;51.976;4.616;2022-08-21T06:46:21;2.78;;;1.75;;
38196;SDS011;26543;51.976;4.616;2022-08-21T06:48:47;8.48;;;1.67;;
38196;SDS011;26543;51.976;4.616;2022-08-21T06:51:12;4.22;;;1.52;;
38196;SDS011;26543;51.976;4.616;2022-08-21T06:53:38;6.93;;;1.80;;
38196;SDS011;26543;51.976;4.616;2022-08-21T06:56:03;2.28;;;1.50;;
38196;SDS011;26543;51.976;4.616;2022-08-21T06:58:29;4.38;;;1.40;;
38196;SDS011;26543;51.976;4.616;2022-08-21T07:00:55;2.80;;;1.30;;
38196;SDS011;26543;51.976;4.616;2022-08-21T07:03:22;3.00;;;1.58;;
38196;SDS011;26543;51.976;4.616;2022-08-21T07:05:48;2.60;;;1.30;;
38196;SDS011;26543;51.976;4.616;2022-08-21T07:08:17;4.10;;;1.70;;
38196;SDS011;26543;51.976;4.616;2022-08-21T07:10:42;4.07;;;1.40;;
38196;SDS011;26543;51.976;4.616;2022-08-21T07:13:08;3.05;;;1.95;;
38196;SDS011;26543;51.976;4.616;2022-08-21T07:15:37;2.22;;;1.27;;
38196;SDS011;26543;51.976;4.616;2022-08-21T07:18:02;4.65;;;1.85;;
38196;SDS011;26543;51.976;4.616;2022-08-21T07:20:28;1.98;;;1.02;;
38196;SDS011;26543;51.976;4.616;2022-08-21T07:22:56;3.40;;;1.65;;
38196;SDS011;26543;51.976;4.616;2022-08-21T07:25:24;6.82;;;1.95;;
38196;SDS011;26543;51.976;4.616;2022-08-21T07:27:50;4.30;;;1.60;;
38196;SDS011;26543;51.976;4.616;2022-08-21T07:30:15;5.47;;;1.33;;
38196;SDS011;26543;51.976;4.616;2022-08-21T07:32:41;5.70;;;1.65;;
38196;SDS011;26543;51.976;4.616;2022-08-21T07:35:06;6.50;;;2.05;;
38196;SDS011;26543;51.976;4.616;2022-08-21T07:37:32;6.88;;;2.20;;
38196;SDS011;26543;51.976;4.616;2022-08-21T07:39:57;8.00;;;1.58;;
38196;SDS011;26543;51.976;4.616;2022-08-21T07:42:23;4.40;;;1.45;;
38196;SDS011;26543;51.976;4.616;2022-08-21T07:44:48;1.90;;;1.30;;
38196;SDS011;26543;51.976;4.616;2022-08-21T07:47:13;4.43;;;1.25;;
38196;SDS011;26543;51.976;4.616;2022-08-21T07:49:39;2.55;;;1.15;;
38196;SDS011;26543;51.976;4.616;2022-08-21T07:52:04;2.20;;;1.08;;
38196;SDS011;26543;51.976;4.616;2022-08-21T07:54:30;4.93;;;2.05;;
38196;SDS011;26543;51.976;4.616;2022-08-21T07:56:55;5.75;;;1.77;;
38196;SDS011;26543;51.976;4.616;2022-08-21T07:59:21;5.47;;;1.50;;
38196;SDS011;26543;51.976;4.616;2022-08-21T08:01:46;4.70;;;1.52;;
38196;SDS011;26543;51.976;4.616;2022-08-21T08:04:11;5.25;;;1.30;;
38196;SDS011;26543;51.976;4.616;2022-08-21T08:06:37;3.83;;;1.20;;
38196;SDS011;26543;51.976;4.616;2022-08-21T08:09:03;2.92;;;1.13;;
38196;SDS011;26543;51.976;4.616;2022-08-21T08:11:29;4.80;;;1.05;;
38196;SDS011;26543;51.976;4.616;2022-08-21T08:13:57;6.60;;;1.67;;
38196;SDS011;26543;51.976;4.616;2022-08-21T08:16:25;5.67;;;1.70;;
38196;SDS011;26543;51.976;4.616;2022-08-21T08:18:51;2.72;;;0.80;;
38196;SDS011;26543;51.976;4.616;2022-08-21T08:21:16;6.38;;;1.33;;
38196;SDS011;26543;51.976;4.616;2022-08-21T08:23:43;4.70;;;1.15;;
38196;SDS011;26543;51.976;4.616;2022-08-21T08:26:10;4.07;;;1.48;;
38196;SDS011;26543;51.976;4.616;2022-08-21T08:28:35;6.90;;;1.27;;
38196;SDS011;26543;51.976;4.616;2022-08-21T08:31:01;2.72;;;1.10;;
38196;SDS011;26543;51.976;4.616;2022-08-21T08:33:27;4.45;;;1.20;;
38196;SDS011;26543;51.976;4.616;2022-08-21T08:35:53;2.83;;;0.90;;
38196;SDS011;26543;51.976;4.616;2022-08-21T08:38:22;1.77;;;0.75;;
38196;SDS011;26543;51.976;4.616;2022-08-21T08:40:55;2.20;;;1.17;;
38196;SDS011;26543;51.976;4.616;2022-08-21T08:43:28;3.22;;;1.02;;
38196;SDS011;26543;51.976;4.616;2022-08-21T08:45:57;4.93;;;1.35;;
38196;SDS011;26543;51.976;4.616;2022-08-21T08:48:39;6.75;;;1.27;;
38196;SDS011;26543;51.976;4.616;2022-08-21T08:51:14;3.85;;;1.00;;
38196;SDS011;26543;51.976;4.616;2022-08-21T08:53:59;4.63;;;1.33;;
38196;SDS011;26543;51.976;4.616;2022-08-21T08:56:32;2.72;;;1.02;;
38196;SDS011;26543;51.976;4.616;2022-08-21T08:59:02;6.07;;;1.13;;
38196;SDS011;26543;51.976;4.616;2022-08-21T09:01:36;2.83;;;1.30;;
38196;SDS011;26543;51.976;4.616;2022-08-21T09:04:01;4.93;;;1.40;;
38196;SDS011;26543;51.976;4.616;2022-08-21T09:06:45;2.53;;;0.88;;
38196;SDS011;26543;51.976;4.616;2022-08-21T09:14:56;4.28;;;0.90;;
38196;SDS011;26543;51.976;4.616;2022-08-21T09:25:31;2.75;;;1.02;;
38196;SDS011;26543;51.976;4.616;2022-08-21T09:27:59;1.80;;;0.60;;
38196;SDS011;26543;51.976;4.616;2022-08-21T09:30:26;1.33;;;0.63;;
38196;SDS011;26543;51.976;4.616;2022-08-21T09:32:54;3.03;;;0.45;;
38196;SDS011;26543;51.976;4.616;2022-08-21T09:35:21;1.00;;;0.60;;
38196;SDS011;26543;51.976;4.616;2022-08-21T09:37:54;1.65;;;0.88;;
38196;SDS011;26543;51.976;4.616;2022-08-21T09:40:26;0.80;;;0.40;;
38196;SDS011;26543;51.976;4.616;2022-08-21T09:43:16;2.47;;;0.60;;
38196;SDS011;26543;51.976;4.616;2022-08-21T09:45:44;1.40;;;0.57;;
38196;SDS011;26543;51.976;4.616;2022-08-21T09:48:20;2.90;;;0.85;;
38196;SDS011;26543;51.976;4.616;2022-08-21T09:50:47;3.65;;;0.73;;
38196;SDS011;26543;51.976;4.616;2022-08-21T09:53:16;4.32;;;0.82;;
38196;SDS011;26543;51.976;4.616;2022-08-21T09:58:35;1.88;;;0.52;;
38196;SDS011;26543;51.976;4.616;2022-08-21T10:01:06;0.70;;;0.30;;
38196;SDS011;26543;51.976;4.616;2022-08-21T10:03:37;3.45;;;0.80;;
38196;SDS011;26543;51.976;4.616;2022-08-21T10:06:04;1.05;;;0.52;;
38196;SDS011;26543;51.976;4.616;2022-08-21T10:08:34;0.95;;;0.35;;
38196;SDS011;26543;51.976;4.616;2022-08-21T10:11:06;1.35;;;0.60;;
38196;SDS011;26543;51.976;4.616;2022-08-21T10:13:38;2.67;;;0.60;;
38196;SDS011;26543;51.976;4.616;2022-08-21T10:30:11;2.65;;;0.50;;
38196;SDS011;26543;51.976;4.616;2022-08-21T10:35:28;2.47;;;0.85;;
38196;SDS011;26543;51.976;4.616;2022-08-21T10:46:09;1.58;;;0.77;;
38196;SDS011;26543;51.976;4.616;2022-08-21T10:48:49;0.68;;;0.40;;
38196;SDS011;26543;51.976;4.616;2022-08-21T10:51:24;1.20;;;0.50;;
38196;SDS011;26543;51.976;4.616;2022-08-21T10:54:03;2.78;;;0.75;;
38196;SDS011;26543;51.976;4.616;2022-08-21T10:56:50;1.58;;;0.73;;
38196;SDS011;26543;51.976;4.616;2022-08-21T10:59:28;1.45;;;0.47;;
38196;SDS011;26543;51.976;4.616;2022-08-21T11:04:45;1.02;;;0.50;;
38196;SDS011;26543;51.976;4.616;2022-08-21T11:07:26;2.17;;;0.82;;
38196;SDS011;26543;51.976;4.616;2022-08-21T11:09:56;5.82;;;1.02;;
38196;SDS011;26543;51.976;4.616;2022-08-21T11:12:31;0.68;;;0.28;;
38196;SDS011;26543;51.976;4.616;2022-08-21T11:15:11;0.40;;;0.20;;
38196;SDS011;26543;51.976;4.616;2022-08-21T11:17:39;1.27;;;0.55;;
38196;SDS011;26543;51.976;4.616;2022-08-21T11:20:28;0.90;;;0.35;;
38196;SDS011;26543;51.976;4.616;2022-08-21T11:23:07;2.17;;;0.57;;
38196;SDS011;26543;51.976;4.616;2022-08-21T11:28:46;2.63;;;0.55;;
38196;SDS011;26543;51.976;4.616;2022-08-21T11:31:23;3.35;;;0.52;;
38196;SDS011;26543;51.976;4.616;2022-08-21T11:34:05;1.45;;;0.50;;
38196;SDS011;26543;51.976;4.616;2022-08-21T11:36:38;1.50;;;0.57;;
38196;SDS011;26543;51.976;4.616;2022-08-21T11:44:48;0.82;;;0.22;;
38196;SDS011;26543;51.976;4.616;2022-08-21T11:47:19;1.42;;;0.38;;
38196;SDS011;26543;51.976;4.616;2022-08-21T11:50:05;2.45;;;0.60;;
38196;SDS011;26543;51.976;4.616;2022-08-21T11:52:44;5.95;;;0.77;;
38196;SDS011;26543;51.976;4.616;2022-08-21T11:55:19;0.50;;;0.28;;
38196;SDS011;26543;51.976;4.616;2022-08-21T11:57:49;1.30;;;0.50;;
38196;SDS011;26543;51.976;4.616;2022-08-21T12:00:54;1.52;;;0.70;;
38196;SDS011;26543;51.976;4.616;2022-08-21T12:03:33;1.00;;;0.55;;
38196;SDS011;26543;51.976;4.616;2022-08-21T12:06:02;2.22;;;0.55;;
38196;SDS011;26543;51.976;4.616;2022-08-21T12:08:39;1.48;;;0.43;;
38196;SDS011;26543;51.976;4.616;2022-08-21T12:13:40;1.55;;;0.55;;
38196;SDS011;26543;51.976;4.616;2022-08-21T12:16:28;1.40;;;0.52;;
38196;SDS011;26543;51.976;4.616;2022-08-21T12:19:28;1.50;;;0.35;;
38196;SDS011;26543;51.976;4.616;2022-08-21T12:21:52;1.35;;;0.50;;
38196;SDS011;26543;51.976;4.616;2022-08-21T12:26:53;1.27;;;0.43;;
38196;SDS011;26543;51.976;4.616;2022-08-21T12:34:23;1.38;;;0.40;;
38196;SDS011;26543;51.976;4.616;2022-08-21T12:37:24;4.45;;;0.57;;
38196;SDS011;26543;51.976;4.616;2022-08-21T12:40:02;2.95;;;0.30;;
38196;SDS011;26543;51.976;4.616;2022-08-21T12:42:37;1.20;;;0.50;;
38196;SDS011;26543;51.976;4.616;2022-08-21T12:45:37;1.42;;;0.57;;
38196;SDS011;26543;51.976;4.616;2022-08-21T12:48:20;1.58;;;0.52;;
38196;SDS011;26543;51.976;4.616;2022-08-21T12:50:53;0.85;;;0.22;;
38196;SDS011;26543;51.976;4.616;2022-08-21T12:56:16;0.68;;;0.20;;
38196;SDS011;26543;51.976;4.616;2022-08-21T12:58:49;2.67;;;0.38;;
38196;SDS011;26543;51.976;4.616;2022-08-21T13:01:45;0.60;;;0.17;;
38196;SDS011;26543;51.976;4.616;2022-08-21T13:04:13;2.72;;;0.47;;
38196;SDS011;26543;51.976;4.616;2022-08-21T13:06:46;1.27;;;0.20;;
38196;SDS011;26543;51.976;4.616;2022-08-21T13:09:15;1.45;;;0.25;;
38196;SDS011;26543;51.976;4.616;2022-08-21T13:11:43;1.05;;;0.40;;
38196;SDS011;26543;51.976;4.616;2022-08-21T13:14:21;1.38;;;0.47;;
38196;SDS011;26543;51.976;4.616;2022-08-21T13:16:55;0.70;;;0.32;;
38196;SDS011;26543;51.976;4.616;2022-08-21T13:19:23;2.42;;;0.43;;
38196;SDS011;26543;51.976;4.616;2022-08-21T13:21:49;0.90;;;0.30;;
38196;SDS011;26543;51.976;4.616;2022-08-21T13:26:43;1.23;;;0.30;;
38196;SDS011;26543;51.976;4.616;2022-08-21T13:29:10;2.80;;;0.40;;
38196;SDS011;26543;51.976;4.616;2022-08-21T13:31:37;1.08;;;0.25;;
38196;SDS011;26543;51.976;4.616;2022-08-21T13:34:05;0.60;;;0.20;;
38196;SDS011;26543;51.976;4.616;2022-08-21T13:36:34;1.05;;;0.30;;
38196;SDS011;26543;51.976;4.616;2022-08-21T13:39:05;4.43;;;0.30;;
38196;SDS011;26543;51.976;4.616;2022-08-21T13:41:34;0.52;;;0.20;;
38196;SDS011;26543;51.976;4.616;2022-08-21T13:44:03;3.80;;;0.40;;
38196;SDS011;26543;51.976;4.616;2022-08-21T13:46:32;0.88;;;0.38;;
38196;SDS011;26543;51.976;4.616;2022-08-21T13:49:00;1.38;;;0.47;;
38196;SDS011;26543;51.976;4.616;2022-08-21T13:51:27;1.25;;;0.30;;
38196;SDS011;26543;51.976;4.616;2022-08-21T13:53:54;0.95;;;0.40;;
38196;SDS011;26543;51.976;4.616;2022-08-21T13:56:25;2.22;;;0.75;;
38196;SDS011;26543;51.976;4.616;2022-08-21T13:58:56;3.17;;;0.68;;
38196;SDS011;26543;51.976;4.616;2022-08-21T14:01:27;4.30;;;0.75;;
38196;SDS011;26543;51.976;4.616;2022-08-21T14:03:57;1.42;;;0.50;;
38196;SDS011;26543;51.976;4.616;2022-08-21T14:06:41;2.20;;;0.50;;
38196;SDS011;26543;51.976;4.616;2022-08-21T14:09:10;1.50;;;0.40;;
38196;SDS011;26543;51.976;4.616;2022-08-21T14:11:59;1.90;;;0.38;;
38196;SDS011;26543;51.976;4.616;2022-08-21T14:14:37;4.45;;;0.63;;
38196;SDS011;26543;51.976;4.616;2022-08-21T14:17:05;2.93;;;0.77;;
38196;SDS011;26543;51.976;4.616;2022-08-21T14:19:44;0.73;;;0.32;;
38196;SDS011;26543;51.976;4.616;2022-08-21T14:22:21;3.97;;;0.75;;
38196;SDS011;26543;51.976;4.616;2022-08-21T14:24:47;1.73;;;0.60;;
38196;SDS011;26543;51.976;4.616;2022-08-21T14:27:15;3.53;;;0.57;;
38196;SDS011;26543;51.976;4.616;2022-08-21T14:29:42;1.15;;;0.32;;
38196;SDS011;26543;51.976;4.616;2022-08-21T14:32:20;4.70;;;1.95;;
38196;SDS011;26543;51.976;4.616;2022-08-21T14:34:57;0.88;;;0.40;;
38196;SDS011;26543;51.976;4.616;2022-08-21T14:37:23;2.25;;;0.45;;
38196;SDS011;26543;51.976;4.616;2022-08-21T14:39:49;2.65;;;0.47;;
38196;SDS011;26543;51.976;4.616;2022-08-21T14:42:14;1.73;;;0.73;;
38196;SDS011;26543;51.976;4.616;2022-08-21T14:44:43;2.63;;;0.90;;
38196;SDS011;26543;51.976;4.616;2022-08-21T14:47:08;4.00;;;1.48;;
38196;SDS011;26543;51.976;4.616;2022-08-21T14:49:34;1.63;;;0.60;;
38196;SDS011;26543;51.976;4.616;2022-08-21T14:51:59;1.30;;;0.40;;
38196;SDS011;26543;51.976;4.616;2022-08-21T14:54:28;3.17;;;1.08;;
38196;SDS011;26543;51.976;4.616;2022-08-21T14:56:55;2.35;;;0.60;;
38196;SDS011;26543;51.976;4.616;2022-08-21T14:59:22;4.40;;;0.75;;
38196;SDS011;26543;51.976;4.616;2022-08-21T15:01:48;2.92;;;0.43;;
38196;SDS011;26543;51.976;4.616;2022-08-21T15:04:14;1.10;;;0.20;;
38196;SDS011;26543;51.976;4.616;2022-08-21T15:06:43;2.20;;;0.73;;
38196;SDS011;26543;51.976;4.616;2022-08-21T15:09:09;2.78;;;1.25;;
38196;SDS011;26543;51.976;4.616;2022-08-21T15:11:34;2.65;;;0.75;;
38196;SDS011;26543;51.976;4.616;2022-08-21T15:14:02;4.20;;;0.93;;
38196;SDS011;26543;51.976;4.616;2022-08-21T15:16:31;2.28;;;0.98;;
38196;SDS011;26543;51.976;4.616;2022-08-21T15:18:59;2.30;;;1.05;;
38196;SDS011;26543;51.976;4.616;2022-08-21T15:21:24;4.68;;;1.90;;
38196;SDS011;26543;51.976;4.616;2022-08-21T15:23:52;2.92;;;1.67;;
38196;SDS011;26543;51.976;4.616;2022-08-21T15:26:19;1.90;;;0.70;;
38196;SDS011;26543;51.976;4.616;2022-08-21T15:28:47;6.90;;;0.80;;
38196;SDS011;26543;51.976;4.616;2022-08-21T15:31:12;2.85;;;0.93;;
38196;SDS011;26543;51.976;4.616;2022-08-21T15:33:40;1.77;;;0.70;;
38196;SDS011;26543;51.976;4.616;2022-08-21T15:36:05;0.63;;;0.28;;
38196;SDS011;26543;51.976;4.616;2022-08-21T15:38:31;2.22;;;0.40;;
38196;SDS011;26543;51.976;4.616;2022-08-21T15:40:56;4.25;;;0.75;;
38196;SDS011;26543;51.976;4.616;2022-08-21T15:43:26;3.35;;;1.00;;
38196;SDS011;26543;51.976;4.616;2022-08-21T15:45:53;1.42;;;0.45;;
38196;SDS011;26543;51.976;4.616;2022-08-21T15:48:20;1.50;;;0.45;;
38196;SDS011;26543;51.976;4.616;2022-08-21T15:50:46;1.00;;;0.38;;
38196;SDS011;26543;51.976;4.616;2022-08-21T15:53:12;1.20;;;0.55;;
38196;SDS011;26543;51.976;4.616;2022-08-21T15:55:38;2.50;;;0.73;;
38196;SDS011;26543;51.976;4.616;2022-08-21T15:58:04;0.88;;;0.40;;
38196;SDS011;26543;51.976;4.616;2022-08-21T16:00:32;2.03;;;0.77;;
38196;SDS011;26543;51.976;4.616;2022-08-21T16:03:00;0.77;;;0.35;;
38196;SDS011;26543;51.976;4.616;2022-08-21T16:05:30;5.70;;;0.95;;
38196;SDS011;26543;51.976;4.616;2022-08-21T16:07:56;2.55;;;0.65;;
38196;SDS011;26543;51.976;4.616;2022-08-21T16:10:23;1.52;;;0.55;;